sensor_id;sensor_type;location;lat;lon;timestamp;P1;P2;P0
57411;PMS5003;43247;52.828;-8.980;2023-02-15T00:00:19;28;27;
57411;PMS5003;43247;52.828;-8.980;2023-02-15T00:01:19;26;25;
57411;PMS5003;43247;52.828;-8.980;2023-02-15T00:02:19;24;24;
57411;PMS5003;43247;52.828;-8.980;2023-02-15T00:03:20;26;25;
57411;PMS5003;43247;52.828;-8.980;2023-02-15T00:04:22;34;28;
57411;PMS5003;43247;52.828;-8.980;2023-02-15T00:05:21;28;26;
57411;PMS5003;43247;52.828;-8.980;2023-02-15T00:06:21;31;26;
57411;PMS5003;43247;52.828;-8.980;2023-02-15T00:07:21;30;26;
57411;PMS5003;43247;52.828;-8.980;2023-02-15T00:08:22;30;29;
57411;PMS5003;43247;52.828;-8.980;2023-02-15T00:09:23;29;29;
57411;PMS5003;43247;52.828;-8.980;2023-02-15T00:10:23;27;27;
57411;PMS5003;43247;52.828;-8.980;2023-02-15T00:11:24;28;25;
57411;PMS5003;43247;52.828;-8.980;2023-02-15T00:12:24;28;28;
57411;PMS5003;43247;52.828;-8.980;2023-02-15T00:13:25;34;30;
57411;PMS5003;43247;52.828;-8.980;2023-02-15T00:14:25;36;30;
57411;PMS5003;43247;52.828;-8.980;2023-02-15T00:15:26;29;26;
57411;PMS5003;43247;52.828;-8.980;2023-02-15T00:16:26;29;29;
57411;PMS5003;43247;52.828;-8.980;2023-02-15T00:17:27;28;26;
57411;PMS5003;43247;52.828;-8.980;2023-02-15T00:18:27;28;26;
57411;PMS5003;43247;52.828;-8.980;2023-02-15T00:19:28;32;29;
57411;PMS5003;43247;52.828;-8.980;2023-02-15T00:20:29;31;27;
57411;PMS5003;43247;52.828;-8.980;2023-02-15T00:21:30;25;25;
57411;PMS5003;43247;52.828;-8.980;2023-02-15T00:22:29;26;26;
57411;PMS5003;43247;52.828;-8.980;2023-02-15T00:23:30;29;25;
57411;PMS5003;43247;52.828;-8.980;2023-02-15T00:24:31;29;26;
57411;PMS5003;43247;52.828;-8.980;2023-02-15T00:25:31;29;25;
57411;PMS5003;43247;52.828;-8.980;2023-02-15T00:26:32;29;27;
57411;PMS5003;43247;52.828;-8.980;2023-02-15T00:27:32;26;24;
57411;PMS5003;43247;52.828;-8.980;2023-02-15T00:28:32;28;28;
57411;PMS5003;43247;52.828;-8.980;2023-02-15T00:29:32;28;26;
57411;PMS5003;43247;52.828;-8.980;2023-02-15T00:30:33;24;23;
57411;PMS5003;43247;52.828;-8.980;2023-02-15T00:31:33;25;25;
57411;PMS5003;43247;52.828;-8.980;2023-02-15T00:32:34;26;24;
57411;PMS5003;43247;52.828;-8.980;2023-02-15T00:33:35;27;22;
57411;PMS5003;43247;52.828;-8.980;2023-02-15T00:34:35;27;24;
57411;PMS5003;43247;52.828;-8.980;2023-02-15T00:35:36;27;26;
57411;PMS5003;43247;52.828;-8.980;2023-02-15T00:36:37;26;25;
57411;PMS5003;43247;52.828;-8.980;2023-02-15T00:37:38;26;23;
57411;PMS5003;43247;52.828;-8.980;2023-02-15T00:38:38;29;27;
57411;PMS5003;43247;52.828;-8.980;2023-02-15T00:39:38;23;21;
57411;PMS5003;43247;52.828;-8.980;2023-02-15T00:40:39;24;23;
57411;PMS5003;43247;52.828;-8.980;2023-02-15T00:41:39;28;25;
57411;PMS5003;43247;52.828;-8.980;2023-02-15T00:42:40;29;27;
57411;PMS5003;43247;52.828;-8.980;2023-02-15T00:43:41;25;23;
57411;PMS5003;43247;52.828;-8.980;2023-02-15T00:44:41;31;29;
57411;PMS5003;43247;52.828;-8.980;2023-02-15T00:45:42;26;24;
57411;PMS5003;43247;52.828;-8.980;2023-02-15T00:46:42;21;21;
57411;PMS5003;43247;52.828;-8.980;2023-02-15T00:47:42;25;24;
57411;PMS5003;43247;52.828;-8.980;2023-02-15T00:48:43;32;29;
57411;PMS5003;43247;52.828;-8.980;2023-02-15T00:49:43;30;24;
57411;PMS5003;43247;52.828;-8.980;2023-02-15T00:50:44;29;27;
57411;PMS5003;43247;52.828;-8.980;2023-02-15T00:51:44;29;28;
57411;PMS5003;43247;52.828;-8.980;2023-02-15T00:52:45;30;26;
57411;PMS5003;43247;52.828;-8.980;2023-02-15T00:53:45;27;26;
57411;PMS5003;43247;52.828;-8.980;2023-02-15T00:54:46;26;26;
57411;PMS5003;43247;52.828;-8.980;2023-02-15T00:55:46;24;23;
57411;PMS5003;43247;52.828;-8.980;2023-02-15T00:56:47;27;25;
57411;PMS5003;43247;52.828;-8.980;2023-02-15T00:57:47;27;24;
57411;PMS5003;43247;52.828;-8.980;2023-02-15T00:58:48;25;23;
57411;PMS5003;43247;52.828;-8.980;2023-02-15T00:59:48;26;23;
57411;PMS5003;43247;52.828;-8.980;2023-02-15T01:00:49;23;20;
57411;PMS5003;43247;52.828;-8.980;2023-02-15T01:01:49;15;15;
57411;PMS5003;43247;52.828;-8.980;2023-02-15T01:02:50;10;10;
57411;PMS5003;43247;52.828;-8.980;2023-02-15T01:03:50;8;7;
57411;PMS5003;43247;52.828;-8.980;2023-02-15T01:04:51;5;5;
57411;PMS5003;43247;52.828;-8.980;2023-02-15T01:05:51;8;7;
57411;PMS5003;43247;52.828;-8.980;2023-02-15T01:06:51;0;0;
57411;PMS5003;43247;52.828;-8.980;2023-02-15T01:07:52;3;3;
57411;PMS5003;43247;52.828;-8.980;2023-02-15T01:08:52;5;4;
57411;PMS5003;43247;52.828;-8.980;2023-02-15T01:09:52;5;5;
57411;PMS5003;43247;52.828;-8.980;2023-02-15T01:10:53;2;2;
57411;PMS5003;43247;52.828;-8.980;2023-02-15T01:11:53;3;3;
57411;PMS5003;43247;52.828;-8.980;2023-02-15T01:12:53;1;1;
57411;PMS5003;43247;52.828;-8.980;2023-02-15T01:13:54;3;3;
57411;PMS5003;43247;52.828;-8.980;2023-02-15T01:14:53;1;1;
57411;PMS5003;43247;52.828;-8.980;2023-02-15T01:15:54;1;1;
57411;PMS5003;43247;52.828;-8.980;2023-02-15T01:16:54;1;1;
57411;PMS5003;43247;52.828;-8.980;2023-02-15T01:17:54;1;1;
57411;PMS5003;43247;52.828;-8.980;2023-02-15T01:18:54;1;0;
57411;PMS5003;43247;52.828;-8.980;2023-02-15T01:19:54;1;1;
57411;PMS5003;43247;52.828;-8.980;2023-02-15T01:20:55;1;1;
57411;PMS5003;43247;52.828;-8.980;2023-02-15T01:21:55;1;1;
57411;PMS5003;43247;52.828;-8.980;2023-02-15T01:22:56;3;3;
57411;PMS5003;43247;52.828;-8.980;2023-02-15T01:23:55;2;2;
57411;PMS5003;43247;52.828;-8.980;2023-02-15T01:24:55;1;1;
57411;PMS5003;43247;52.828;-8.980;2023-02-15T01:25:55;1;0;
57411;PMS5003;43247;52.828;-8.980;2023-02-15T01:26:56;2;2;
57411;PMS5003;43247;52.828;-8.980;2023-02-15T01:27:56;3;3;
57411;PMS5003;43247;52.828;-8.980;2023-02-15T01:28:56;2;2;
57411;PMS5003;43247;52.828;-8.980;2023-02-15T01:29:56;2;1;
57411;PMS5003;43247;52.828;-8.980;2023-02-15T01:30:56;0;0;
57411;PMS5003;43247;52.828;-8.980;2023-02-15T01:31:56;2;1;
57411;PMS5003;43247;52.828;-8.980;2023-02-15T01:32:57;1;1;
57411;PMS5003;43247;52.828;-8.980;2023-02-15T01:33:57;1;1;
57411;PMS5003;43247;52.828;-8.980;2023-02-15T01:34:57;0;0;
57411;PMS5003;43247;52.828;-8.980;2023-02-15T01:35:57;0;0;
57411;PMS5003;43247;52.828;-8.980;2023-02-15T01:36:57;2;1;
57411;PMS5003;43247;52.828;-8.980;2023-02-15T01:37:58;3;3;
57411;PMS5003;43247;52.828;-8.980;2023-02-15T01:38:58;0;0;
57411;PMS5003;43247;52.828;-8.980;2023-02-15T01:39:58;1;1;
57411;PMS5003;43247;52.828;-8.980;2023-02-15T01:40:59;1;1;
57411;PMS5003;43247;52.828;-8.980;2023-02-15T01:41:59;0;0;
57411;PMS5003;43247;52.828;-8.980;2023-02-15T01:42:59;2;1;
57411;PMS5003;43247;52.828;-8.980;2023-02-15T01:44:00;0;0;
57411;PMS5003;43247;52.828;-8.980;2023-02-15T01:45:00;0;0;
57411;PMS5003;43247;52.828;-8.980;2023-02-15T01:45:59;3;3;
57411;PMS5003;43247;52.828;-8.980;2023-02-15T01:47:00;6;6;
57411;PMS5003;43247;52.828;-8.980;2023-02-15T01:48:01;4;4;
57411;PMS5003;43247;52.828;-8.980;2023-02-15T01:49:02;3;3;
57411;PMS5003;43247;52.828;-8.980;2023-02-15T01:50:04;3;2;
57411;PMS5003;43247;52.828;-8.980;2023-02-15T01:51:03;0;0;
57411;PMS5003;43247;52.828;-8.980;2023-02-15T01:52:03;2;2;
57411;PMS5003;43247;52.828;-8.980;2023-02-15T01:53:05;2;0;
57411;PMS5003;43247;52.828;-8.980;2023-02-15T01:54:05;1;1;
57411;PMS5003;43247;52.828;-8.980;2023-02-15T01:55:04;3;1;
57411;PMS5003;43247;52.828;-8.980;2023-02-15T01:56:04;2;2;
57411;PMS5003;43247;52.828;-8.980;2023-02-15T01:57:05;2;2;
57411;PMS5003;43247;52.828;-8.980;2023-02-15T01:58:04;3;1;
57411;PMS5003;43247;52.828;-8.980;2023-02-15T01:59:05;2;1;
57411;PMS5003;43247;52.828;-8.980;2023-02-15T02:00:05;0;0;
57411;PMS5003;43247;52.828;-8.980;2023-02-15T02:01:05;1;1;
57411;PMS5003;43247;52.828;-8.980;2023-02-15T02:02:05;1;0;
57411;PMS5003;43247;52.828;-8.980;2023-02-15T02:03:05;1;1;
57411;PMS5003;43247;52.828;-8.980;2023-02-15T02:04:07;1;1;
57411;PMS5003;43247;52.828;-8.980;2023-02-15T02:05:05;0;0;
57411;PMS5003;43247;52.828;-8.980;2023-02-15T02:06:05;1;1;
57411;PMS5003;43247;52.828;-8.980;2023-02-15T02:07:06;0;0;
57411;PMS5003;43247;52.828;-8.980;2023-02-15T02:08:06;0;0;
57411;PMS5003;43247;52.828;-8.980;2023-02-15T02:09:06;0;0;
57411;PMS5003;43247;52.828;-8.980;2023-02-15T02:10:07;1;1;
57411;PMS5003;43247;52.828;-8.980;2023-02-15T02:11:09;1;1;
57411;PMS5003;43247;52.828;-8.980;2023-02-15T02:12:07;0;0;
57411;PMS5003;43247;52.828;-8.980;2023-02-15T02:13:07;0;0;
57411;PMS5003;43247;52.828;-8.980;2023-02-15T02:14:07;0;0;
57411;PMS5003;43247;52.828;-8.980;2023-02-15T02:15:07;0;0;
57411;PMS5003;43247;52.828;-8.980;2023-02-15T02:16:09;1;1;
57411;PMS5003;43247;52.828;-8.980;2023-02-15T02:17:09;0;0;
57411;PMS5003;43247;52.828;-8.980;2023-02-15T02:18:12;0;0;
57411;PMS5003;43247;52.828;-8.980;2023-02-15T02:22:16;0;0;
57411;PMS5003;43247;52.828;-8.980;2023-02-15T02:25:12;0;0;
57411;PMS5003;43247;52.828;-8.980;2023-02-15T02:26:14;0;0;
57411;PMS5003;43247;52.828;-8.980;2023-02-15T02:27:12;1;1;
57411;PMS5003;43247;52.828;-8.980;2023-02-15T02:28:14;0;0;
57411;PMS5003;43247;52.828;-8.980;2023-02-15T02:31:17;0;0;
57411;PMS5003;43247;52.828;-8.980;2023-02-15T02:33:14;1;1;
57411;PMS5003;43247;52.828;-8.980;2023-02-15T02:34:11;2;2;
57411;PMS5003;43247;52.828;-8.980;2023-02-15T02:35:11;0;0;
57411;PMS5003;43247;52.828;-8.980;2023-02-15T02:36:15;1;1;
57411;PMS5003;43247;52.828;-8.980;2023-02-15T02:37:12;0;0;
57411;PMS5003;43247;52.828;-8.980;2023-02-15T02:38:11;0;0;
57411;PMS5003;43247;52.828;-8.980;2023-02-15T02:39:15;1;0;
57411;PMS5003;43247;52.828;-8.980;2023-02-15T02:40:13;0;0;
57411;PMS5003;43247;52.828;-8.980;2023-02-15T02:41:14;0;0;
57411;PMS5003;43247;52.828;-8.980;2023-02-15T02:42:13;0;0;
57411;PMS5003;43247;52.828;-8.980;2023-02-15T02:43:15;0;0;
57411;PMS5003;43247;52.828;-8.980;2023-02-15T02:44:13;0;0;
57411;PMS5003;43247;52.828;-8.980;2023-02-15T02:45:13;1;1;
57411;PMS5003;43247;52.828;-8.980;2023-02-15T02:46:14;0;0;
57411;PMS5003;43247;52.828;-8.980;2023-02-15T02:47:15;0;0;
57411;PMS5003;43247;52.828;-8.980;2023-02-15T02:48:13;0;0;
57411;PMS5003;43247;52.828;-8.980;2023-02-15T02:49:13;0;0;
57411;PMS5003;43247;52.828;-8.980;2023-02-15T02:50:14;0;0;
57411;PMS5003;43247;52.828;-8.980;2023-02-15T02:51:14;0;0;
57411;PMS5003;43247;52.828;-8.980;2023-02-15T02:53:14;0;0;
57411;PMS5003;43247;52.828;-8.980;2023-02-15T02:54:14;0;0;
57411;PMS5003;43247;52.828;-8.980;2023-02-15T02:55:16;0;0;
57411;PMS5003;43247;52.828;-8.980;2023-02-15T02:56:17;0;0;
57411;PMS5003;43247;52.828;-8.980;2023-02-15T02:57:15;0;0;
57411;PMS5003;43247;52.828;-8.980;2023-02-15T02:58:17;1;1;
57411;PMS5003;43247;52.828;-8.980;2023-02-15T02:59:15;0;0;
57411;PMS5003;43247;52.828;-8.980;2023-02-15T03:00:15;1;1;
57411;PMS5003;43247;52.828;-8.980;2023-02-15T03:01:16;0;0;
57411;PMS5003;43247;52.828;-8.980;2023-02-15T03:02:16;0;0;
57411;PMS5003;43247;52.828;-8.980;2023-02-15T03:03:20;1;1;
57411;PMS5003;43247;52.828;-8.980;2023-02-15T03:04:17;1;1;
57411;PMS5003;43247;52.828;-8.980;2023-02-15T03:05:17;0;0;
57411;PMS5003;43247;52.828;-8.980;2023-02-15T03:06:18;0;0;
57411;PMS5003;43247;52.828;-8.980;2023-02-15T03:07:17;0;0;
57411;PMS5003;43247;52.828;-8.980;2023-02-15T03:08:17;0;0;
57411;PMS5003;43247;52.828;-8.980;2023-02-15T03:09:18;0;0;
57411;PMS5003;43247;52.828;-8.980;2023-02-15T03:10:18;0;0;
57411;PMS5003;43247;52.828;-8.980;2023-02-15T03:11:17;1;0;
57411;PMS5003;43247;52.828;-8.980;2023-02-15T03:12:18;0;0;
57411;PMS5003;43247;52.828;-8.980;2023-02-15T03:13:18;2;0;
57411;PMS5003;43247;52.828;-8.980;2023-02-15T03:14:18;0;0;
57411;PMS5003;43247;52.828;-8.980;2023-02-15T03:15:19;0;0;
57411;PMS5003;43247;52.828;-8.980;2023-02-15T03:16:18;0;0;
57411;PMS5003;43247;52.828;-8.980;2023-02-15T03:17:18;0;0;
57411;PMS5003;43247;52.828;-8.980;2023-02-15T03:18:20;0;0;
57411;PMS5003;43247;52.828;-8.980;2023-02-15T03:19:20;0;0;
57411;PMS5003;43247;52.828;-8.980;2023-02-15T03:20:20;0;0;
57411;PMS5003;43247;52.828;-8.980;2023-02-15T03:21:19;1;1;
57411;PMS5003;43247;52.828;-8.980;2023-02-15T03:22:20;0;0;
57411;PMS5003;43247;52.828;-8.980;2023-02-15T03:23:20;0;0;
57411;PMS5003;43247;52.828;-8.980;2023-02-15T03:24:21;0;0;
57411;PMS5003;43247;52.828;-8.980;2023-02-15T03:25:21;0;0;
57411;PMS5003;43247;52.828;-8.980;2023-02-15T03:26:20;0;0;
57411;PMS5003;43247;52.828;-8.980;2023-02-15T03:27:22;1;0;
57411;PMS5003;43247;52.828;-8.980;2023-02-15T03:28:22;0;0;
57411;PMS5003;43247;52.828;-8.980;2023-02-15T03:29:24;0;0;
57411;PMS5003;43247;52.828;-8.980;2023-02-15T03:30:22;0;0;
57411;PMS5003;43247;52.828;-8.980;2023-02-15T03:31:22;0;0;
57411;PMS5003;43247;52.828;-8.980;2023-02-15T03:32:22;0;0;
57411;PMS5003;43247;52.828;-8.980;2023-02-15T03:33:22;0;0;
57411;PMS5003;43247;52.828;-8.980;2023-02-15T03:34:22;0;0;
57411;PMS5003;43247;52.828;-8.980;2023-02-15T03:35:23;0;0;
57411;PMS5003;43247;52.828;-8.980;2023-02-15T03:36:24;0;0;
57411;PMS5003;43247;52.828;-8.980;2023-02-15T03:37:25;0;0;
57411;PMS5003;43247;52.828;-8.980;2023-02-15T03:38:25;0;0;
57411;PMS5003;43247;52.828;-8.980;2023-02-15T03:39:25;0;0;
57411;PMS5003;43247;52.828;-8.980;2023-02-15T03:40:25;0;0;
57411;PMS5003;43247;52.828;-8.980;2023-02-15T03:41:23;0;0;
57411;PMS5003;43247;52.828;-8.980;2023-02-15T03:42:24;1;0;
57411;PMS5003;43247;52.828;-8.980;2023-02-15T03:43:27;0;0;
57411;PMS5003;43247;52.828;-8.980;2023-02-15T03:44:27;1;0;
57411;PMS5003;43247;52.828;-8.980;2023-02-15T03:45:25;0;0;
57411;PMS5003;43247;52.828;-8.980;2023-02-15T03:46:26;0;0;
57411;PMS5003;43247;52.828;-8.980;2023-02-15T03:47:25;0;0;
57411;PMS5003;43247;52.828;-8.980;2023-02-15T03:48:26;0;0;
57411;PMS5003;43247;52.828;-8.980;2023-02-15T03:49:27;0;0;
57411;PMS5003;43247;52.828;-8.980;2023-02-15T03:50:26;1;1;
57411;PMS5003;43247;52.828;-8.980;2023-02-15T03:51:26;0;0;
57411;PMS5003;43247;52.828;-8.980;2023-02-15T03:52:26;0;0;
57411;PMS5003;43247;52.828;-8.980;2023-02-15T03:53:26;0;0;
57411;PMS5003;43247;52.828;-8.980;2023-02-15T03:54:27;0;0;
57411;PMS5003;43247;52.828;-8.980;2023-02-15T03:55:26;0;0;
57411;PMS5003;43247;52.828;-8.980;2023-02-15T03:56:26;0;0;
57411;PMS5003;43247;52.828;-8.980;2023-02-15T03:57:27;0;0;
57411;PMS5003;43247;52.828;-8.980;2023-02-15T03:58:27;0;0;
57411;PMS5003;43247;52.828;-8.980;2023-02-15T03:59:27;0;0;
57411;PMS5003;43247;52.828;-8.980;2023-02-15T04:00:27;0;0;
57411;PMS5003;43247;52.828;-8.980;2023-02-15T04:01:30;1;0;
57411;PMS5003;43247;52.828;-8.980;2023-02-15T04:02:28;0;0;
57411;PMS5003;43247;52.828;-8.980;2023-02-15T04:03:28;1;0;
57411;PMS5003;43247;52.828;-8.980;2023-02-15T04:04:30;0;0;
57411;PMS5003;43247;52.828;-8.980;2023-02-15T04:05:28;0;0;
57411;PMS5003;43247;52.828;-8.980;2023-02-15T04:06:28;0;0;
57411;PMS5003;43247;52.828;-8.980;2023-02-15T04:07:28;0;0;
57411;PMS5003;43247;52.828;-8.980;2023-02-15T04:08:29;0;0;
57411;PMS5003;43247;52.828;-8.980;2023-02-15T04:09:29;0;0;
57411;PMS5003;43247;52.828;-8.980;2023-02-15T04:10:29;0;0;
57411;PMS5003;43247;52.828;-8.980;2023-02-15T04:11:30;1;1;
57411;PMS5003;43247;52.828;-8.980;2023-02-15T04:12:30;0;0;
57411;PMS5003;43247;52.828;-8.980;2023-02-15T04:13:30;0;0;
57411;PMS5003;43247;52.828;-8.980;2023-02-15T04:14:30;0;0;
57411;PMS5003;43247;52.828;-8.980;2023-02-15T04:15:30;0;0;
57411;PMS5003;43247;52.828;-8.980;2023-02-15T04:16:30;0;0;
57411;PMS5003;43247;52.828;-8.980;2023-02-15T04:17:30;0;0;
57411;PMS5003;43247;52.828;-8.980;2023-02-15T04:18:31;1;0;
57411;PMS5003;43247;52.828;-8.980;2023-02-15T04:19:31;0;0;
57411;PMS5003;43247;52.828;-8.980;2023-02-15T04:20:31;0;0;
57411;PMS5003;43247;52.828;-8.980;2023-02-15T04:21:31;0;0;
57411;PMS5003;43247;52.828;-8.980;2023-02-15T04:22:31;1;0;
57411;PMS5003;43247;52.828;-8.980;2023-02-15T04:23:31;0;0;
57411;PMS5003;43247;52.828;-8.980;2023-02-15T04:24:32;0;0;
57411;PMS5003;43247;52.828;-8.980;2023-02-15T04:25:32;0;0;
57411;PMS5003;43247;52.828;-8.980;2023-02-15T04:26:32;0;0;
57411;PMS5003;43247;52.828;-8.980;2023-02-15T04:27:32;0;0;
57411;PMS5003;43247;52.828;-8.980;2023-02-15T04:28:32;0;0;
57411;PMS5003;43247;52.828;-8.980;2023-02-15T04:29:32;0;0;
57411;PMS5003;43247;52.828;-8.980;2023-02-15T04:30:33;0;0;
57411;PMS5003;43247;52.828;-8.980;2023-02-15T04:31:33;0;0;
57411;PMS5003;43247;52.828;-8.980;2023-02-15T04:32:33;0;0;
57411;PMS5003;43247;52.828;-8.980;2023-02-15T04:33:33;0;0;
57411;PMS5003;43247;52.828;-8.980;2023-02-15T04:34:33;0;0;
57411;PMS5003;43247;52.828;-8.980;2023-02-15T04:35:34;0;0;
57411;PMS5003;43247;52.828;-8.980;2023-02-15T04:36:34;0;0;
57411;PMS5003;43247;52.828;-8.980;2023-02-15T04:37:34;0;0;
57411;PMS5003;43247;52.828;-8.980;2023-02-15T04:38:34;0;0;
57411;PMS5003;43247;52.828;-8.980;2023-02-15T04:39:34;0;0;
57411;PMS5003;43247;52.828;-8.980;2023-02-15T04:40:35;0;0;
57411;PMS5003;43247;52.828;-8.980;2023-02-15T04:41:35;0;0;
57411;PMS5003;43247;52.828;-8.980;2023-02-15T04:42:35;0;0;
57411;PMS5003;43247;52.828;-8.980;2023-02-15T04:43:35;1;0;
57411;PMS5003;43247;52.828;-8.980;2023-02-15T04:44:35;0;0;
57411;PMS5003;43247;52.828;-8.980;2023-02-15T04:45:36;0;0;
57411;PMS5003;43247;52.828;-8.980;2023-02-15T04:46:36;0;0;
57411;PMS5003;43247;52.828;-8.980;2023-02-15T04:47:36;0;0;
57411;PMS5003;43247;52.828;-8.980;2023-02-15T04:48:36;0;0;
57411;PMS5003;43247;52.828;-8.980;2023-02-15T04:49:36;0;0;
57411;PMS5003;43247;52.828;-8.980;2023-02-15T04:50:36;0;0;
57411;PMS5003;43247;52.828;-8.980;2023-02-15T04:51:37;0;0;
57411;PMS5003;43247;52.828;-8.980;2023-02-15T04:52:37;0;0;
57411;PMS5003;43247;52.828;-8.980;2023-02-15T04:53:37;0;0;
57411;PMS5003;43247;52.828;-8.980;2023-02-15T04:54:38;0;0;
57411;PMS5003;43247;52.828;-8.980;2023-02-15T04:55:37;0;0;
57411;PMS5003;43247;52.828;-8.980;2023-02-15T04:56:38;1;1;
57411;PMS5003;43247;52.828;-8.980;2023-02-15T04:57:38;1;1;
57411;PMS5003;43247;52.828;-8.980;2023-02-15T04:58:38;0;0;
57411;PMS5003;43247;52.828;-8.980;2023-02-15T04:59:38;0;0;
57411;PMS5003;43247;52.828;-8.980;2023-02-15T05:00:38;0;0;
57411;PMS5003;43247;52.828;-8.980;2023-02-15T05:01:39;0;0;
57411;PMS5003;43247;52.828;-8.980;2023-02-15T05:02:39;0;0;
57411;PMS5003;43247;52.828;-8.980;2023-02-15T05:03:39;0;0;
57411;PMS5003;43247;52.828;-8.980;2023-02-15T05:04:39;1;0;
57411;PMS5003;43247;52.828;-8.980;2023-02-15T05:05:39;0;0;
57411;PMS5003;43247;52.828;-8.980;2023-02-15T05:06:40;0;0;
57411;PMS5003;43247;52.828;-8.980;2023-02-15T05:07:40;0;0;
57411;PMS5003;43247;52.828;-8.980;2023-02-15T05:08:40;0;0;
57411;PMS5003;43247;52.828;-8.980;2023-02-15T05:09:40;0;0;
57411;PMS5003;43247;52.828;-8.980;2023-02-15T05:10:40;0;0;
57411;PMS5003;43247;52.828;-8.980;2023-02-15T05:11:40;0;0;
57411;PMS5003;43247;52.828;-8.980;2023-02-15T05:12:41;0;0;
57411;PMS5003;43247;52.828;-8.980;2023-02-15T05:13:41;0;0;
57411;PMS5003;43247;52.828;-8.980;2023-02-15T05:14:41;0;0;
57411;PMS5003;43247;52.828;-8.980;2023-02-15T05:15:45;0;0;
57411;PMS5003;43247;52.828;-8.980;2023-02-15T05:16:41;0;0;
57411;PMS5003;43247;52.828;-8.980;2023-02-15T05:17:42;0;0;
57411;PMS5003;43247;52.828;-8.980;2023-02-15T05:18:42;0;0;
57411;PMS5003;43247;52.828;-8.980;2023-02-15T05:19:42;0;0;
57411;PMS5003;43247;52.828;-8.980;2023-02-15T05:20:42;1;0;
57411;PMS5003;43247;52.828;-8.980;2023-02-15T05:21:42;0;0;
57411;PMS5003;43247;52.828;-8.980;2023-02-15T05:22:43;0;0;
57411;PMS5003;43247;52.828;-8.980;2023-02-15T05:23:43;1;0;
57411;PMS5003;43247;52.828;-8.980;2023-02-15T05:24:43;0;0;
57411;PMS5003;43247;52.828;-8.980;2023-02-15T05:25:46;0;0;
57411;PMS5003;43247;52.828;-8.980;2023-02-15T05:26:43;0;0;
57411;PMS5003;43247;52.828;-8.980;2023-02-15T05:27:44;0;0;
57411;PMS5003;43247;52.828;-8.980;2023-02-15T05:28:44;0;0;
57411;PMS5003;43247;52.828;-8.980;2023-02-15T05:29:44;0;0;
57411;PMS5003;43247;52.828;-8.980;2023-02-15T05:30:44;0;0;
57411;PMS5003;43247;52.828;-8.980;2023-02-15T05:31:44;0;0;
57411;PMS5003;43247;52.828;-8.980;2023-02-15T05:32:44;0;0;
57411;PMS5003;43247;52.828;-8.980;2023-02-15T05:33:45;0;0;
57411;PMS5003;43247;52.828;-8.980;2023-02-15T05:34:45;1;1;
57411;PMS5003;43247;52.828;-8.980;2023-02-15T05:35:45;1;1;
57411;PMS5003;43247;52.828;-8.980;2023-02-15T05:36:45;1;0;
57411;PMS5003;43247;52.828;-8.980;2023-02-15T05:37:45;0;0;
57411;PMS5003;43247;52.828;-8.980;2023-02-15T05:38:46;0;0;
57411;PMS5003;43247;52.828;-8.980;2023-02-15T05:39:46;0;0;
57411;PMS5003;43247;52.828;-8.980;2023-02-15T05:40:46;2;1;
57411;PMS5003;43247;52.828;-8.980;2023-02-15T05:41:46;0;0;
57411;PMS5003;43247;52.828;-8.980;2023-02-15T05:42:46;0;0;
57411;PMS5003;43247;52.828;-8.980;2023-02-15T05:43:47;0;0;
57411;PMS5003;43247;52.828;-8.980;2023-02-15T05:44:47;0;0;
57411;PMS5003;43247;52.828;-8.980;2023-02-15T05:45:47;0;0;
57411;PMS5003;43247;52.828;-8.980;2023-02-15T05:46:47;0;0;
57411;PMS5003;43247;52.828;-8.980;2023-02-15T05:47:47;0;0;
57411;PMS5003;43247;52.828;-8.980;2023-02-15T05:48:48;0;0;
57411;PMS5003;43247;52.828;-8.980;2023-02-15T05:49:48;0;0;
57411;PMS5003;43247;52.828;-8.980;2023-02-15T05:51:48;1;1;
57411;PMS5003;43247;52.828;-8.980;2023-02-15T05:52:48;0;0;
57411;PMS5003;43247;52.828;-8.980;2023-02-15T05:53:48;1;0;
57411;PMS5003;43247;52.828;-8.980;2023-02-15T05:54:49;1;1;
57411;PMS5003;43247;52.828;-8.980;2023-02-15T05:55:49;0;0;
57411;PMS5003;43247;52.828;-8.980;2023-02-15T05:56:49;0;0;
57411;PMS5003;43247;52.828;-8.980;2023-02-15T05:57:49;0;0;
57411;PMS5003;43247;52.828;-8.980;2023-02-15T05:58:52;1;0;
57411;PMS5003;43247;52.828;-8.980;2023-02-15T05:59:50;1;0;
57411;PMS5003;43247;52.828;-8.980;2023-02-15T06:00:50;0;0;
57411;PMS5003;43247;52.828;-8.980;2023-02-15T06:01:50;0;0;
57411;PMS5003;43247;52.828;-8.980;2023-02-15T06:02:50;0;0;
57411;PMS5003;43247;52.828;-8.980;2023-02-15T06:03:50;0;0;
57411;PMS5003;43247;52.828;-8.980;2023-02-15T06:04:51;1;1;
57411;PMS5003;43247;52.828;-8.980;2023-02-15T06:05:51;0;0;
57411;PMS5003;43247;52.828;-8.980;2023-02-15T06:06:51;0;0;
57411;PMS5003;43247;52.828;-8.980;2023-02-15T06:07:51;1;1;
57411;PMS5003;43247;52.828;-8.980;2023-02-15T06:08:51;0;0;
57411;PMS5003;43247;52.828;-8.980;2023-02-15T06:09:52;1;1;
57411;PMS5003;43247;52.828;-8.980;2023-02-15T06:10:52;1;1;
57411;PMS5003;43247;52.828;-8.980;2023-02-15T06:11:52;1;1;
57411;PMS5003;43247;52.828;-8.980;2023-02-15T06:12:52;1;1;
57411;PMS5003;43247;52.828;-8.980;2023-02-15T06:13:52;1;1;
57411;PMS5003;43247;52.828;-8.980;2023-02-15T06:14:52;1;1;
57411;PMS5003;43247;52.828;-8.980;2023-02-15T06:15:53;1;1;
57411;PMS5003;43247;52.828;-8.980;2023-02-15T06:16:53;1;1;
57411;PMS5003;43247;52.828;-8.980;2023-02-15T06:17:53;1;1;
57411;PMS5003;43247;52.828;-8.980;2023-02-15T06:18:53;1;1;
57411;PMS5003;43247;52.828;-8.980;2023-02-15T06:19:54;1;1;
57411;PMS5003;43247;52.828;-8.980;2023-02-15T06:20:54;0;0;
57411;PMS5003;43247;52.828;-8.980;2023-02-15T06:21:54;0;0;
57411;PMS5003;43247;52.828;-8.980;2023-02-15T06:22:54;0;0;
57411;PMS5003;43247;52.828;-8.980;2023-02-15T06:23:54;1;1;
57411;PMS5003;43247;52.828;-8.980;2023-02-15T06:24:54;1;1;
57411;PMS5003;43247;52.828;-8.980;2023-02-15T06:25:55;0;0;
57411;PMS5003;43247;52.828;-8.980;2023-02-15T06:26:55;1;1;
57411;PMS5003;43247;52.828;-8.980;2023-02-15T06:27:55;1;0;
57411;PMS5003;43247;52.828;-8.980;2023-02-15T06:28:55;0;0;
57411;PMS5003;43247;52.828;-8.980;2023-02-15T06:29:55;2;1;
57411;PMS5003;43247;52.828;-8.980;2023-02-15T06:30:56;0;0;
57411;PMS5003;43247;52.828;-8.980;2023-02-15T06:31:56;0;0;
57411;PMS5003;43247;52.828;-8.980;2023-02-15T06:32:56;0;0;
57411;PMS5003;43247;52.828;-8.980;2023-02-15T06:33:57;1;1;
57411;PMS5003;43247;52.828;-8.980;2023-02-15T06:34:56;0;0;
57411;PMS5003;43247;52.828;-8.980;2023-02-15T06:35:57;0;0;
57411;PMS5003;43247;52.828;-8.980;2023-02-15T06:36:57;0;0;
57411;PMS5003;43247;52.828;-8.980;2023-02-15T06:37:57;0;0;
57411;PMS5003;43247;52.828;-8.980;2023-02-15T06:38:57;2;2;
57411;PMS5003;43247;52.828;-8.980;2023-02-15T06:39:57;0;0;
57411;PMS5003;43247;52.828;-8.980;2023-02-15T06:40:58;0;0;
57411;PMS5003;43247;52.828;-8.980;2023-02-15T06:41:58;0;0;
57411;PMS5003;43247;52.828;-8.980;2023-02-15T06:42:58;0;0;
57411;PMS5003;43247;52.828;-8.980;2023-02-15T06:43:58;0;0;
57411;PMS5003;43247;52.828;-8.980;2023-02-15T06:44:58;0;0;
57411;PMS5003;43247;52.828;-8.980;2023-02-15T06:45:59;2;2;
57411;PMS5003;43247;52.828;-8.980;2023-02-15T06:46:59;1;1;
57411;PMS5003;43247;52.828;-8.980;2023-02-15T06:47:59;0;0;
57411;PMS5003;43247;52.828;-8.980;2023-02-15T06:48:59;1;1;
57411;PMS5003;43247;52.828;-8.980;2023-02-15T06:49:59;1;0;
57411;PMS5003;43247;52.828;-8.980;2023-02-15T06:50:59;1;1;
57411;PMS5003;43247;52.828;-8.980;2023-02-15T06:52:00;2;0;
57411;PMS5003;43247;52.828;-8.980;2023-02-15T06:53:00;1;1;
57411;PMS5003;43247;52.828;-8.980;2023-02-15T06:54:00;1;1;